Time;durP1;ratioP1;P1;durP2;ratioP2;P2;SDS_P1;SDS_P2;PMS_P1;PMS_P2;Temp;Humidity;BMP_temperature;BMP_pressure;BME280_temperature;BME280_humidity;BME280_pressure;Samples;Min_cycle;Max_cycle;Signal;HPM_P1;HPM_P2
2023/12/13 00:04:01;;;;;;;31.33;7.88;;;;;;;9.76;81.51;98743.56;10246465;28;20058;-66
2023/12/13 00:09:03;;;;;;;26.02;6.57;;;;;;;9.71;81.23;98720.03;10248358;28;20043;-66
2023/12/13 00:14:05;;;;;;;24.52;7.30;;;;;;;9.84;81.01;98740.63;10253938;28;20376;-66
2023/12/13 00:19:07;;;;;;;23.98;7.00;;;;;;;9.82;80.78;98737.34;10246480;28;20316;-66
2023/12/13 00:24:09;;;;;;;28.85;7.65;;;;;;;9.86;80.62;98728.66;10244275;28;20039;-66
2023/12/13 00:29:10;;;;;;;22.33;7.72;;;;;;;9.81;80.95;98728.44;10245245;28;20047;-65
2023/12/13 00:34:11;;;;;;;22.20;7.40;;;;;;;9.88;80.73;98721.22;10243361;28;20047;-65
2023/12/13 00:39:13;;;;;;;19.08;6.30;;;;;;;9.96;80.57;98720.16;10243020;28;20077;-66
2023/12/13 00:44:15;;;;;;;17.83;5.93;;;;;;;10.01;80.08;98725.72;10242149;28;20054;-66
2023/12/13 00:49:16;;;;;;;18.33;6.28;;;;;;;10.10;79.90;98723.59;10241854;28;20051;-65
2023/12/13 00:54:18;;;;;;;20.15;6.07;;;;;;;10.22;79.55;98710.34;10239840;28;20043;-65
2023/12/13 00:59:19;;;;;;;19.88;5.95;;;;;;;10.26;79.66;98709.69;10242321;28;20462;-65
2023/12/13 01:04:21;;;;;;;24.80;6.95;;;;;;;10.26;79.64;98707.00;10239477;28;20047;-65
2023/12/13 01:09:22;;;;;;;22.17;8.25;;;;;;;10.24;79.99;98700.19;10241160;28;20618;-65
2023/12/13 01:14:24;;;;;;;27.20;8.07;;;;;;;10.33;79.99;98707.00;10240250;28;20074;-64
2023/12/13 01:19:26;;;;;;;19.25;6.60;;;;;;;10.18;80.25;98734.09;10240907;28;20062;-65
2023/12/13 01:24:27;;;;;;;16.02;5.45;;;;;;;9.84;81.06;98725.34;10239756;28;20050;-65
2023/12/13 01:29:29;;;;;;;21.75;5.07;;;;;;;9.82;81.15;98718.56;10239470;28;20066;-66
2023/12/13 01:34:31;;;;;;;17.38;5.45;;;;;;;9.63;81.83;98713.03;10236128;28;20486;-65
2023/12/13 01:39:32;;;;;;;16.48;4.88;;;;;;;9.63;81.93;98714.88;10239338;28;20107;-65
2023/12/13 01:44:33;;;;;;;14.50;4.50;;;;;;;9.71;81.52;98712.78;10238007;28;20047;-65
2023/12/13 01:49:35;;;;;;;12.35;3.75;;;;;;;9.73;81.67;98712.59;10239447;28;20054;-66
2023/12/13 01:54:37;;;;;;;10.73;4.20;;;;;;;9.74;81.69;98714.25;10238449;28;20058;-64
2023/12/13 01:59:38;;;;;;;8.85;2.80;;;;;;;9.81;81.89;98716.91;10241618;28;20043;-65
2023/12/13 02:04:42;;;;;;;9.98;2.38;;;;;;;9.88;81.90;98710.47;10242018;28;20050;-65
2023/12/13 02:09:43;;;;;;;11.32;2.13;;;;;;;9.95;81.78;98702.38;10236883;28;20062;-66
2023/12/13 02:14:46;;;;;;;9.65;2.22;;;;;;;10.00;81.62;98707.13;10242261;28;20051;-64
2023/12/13 02:19:47;;;;;;;5.47;2.00;;;;;;;10.09;81.30;98709.38;10248047;28;20054;-65
2023/12/13 02:24:50;;;;;;;10.38;2.25;;;;;;;10.17;81.29;98705.63;10247313;28;20592;-65
2023/12/13 02:29:51;;;;;;;12.50;3.42;;;;;;;10.12;81.05;98705.41;10248586;28;20051;-65
2023/12/13 02:34:54;;;;;;;9.93;3.00;;;;;;;10.15;80.99;98709.53;10244211;28;20129;-63
2023/12/13 02:39:58;;;;;;;10.13;3.15;;;;;;;10.23;81.24;98714.66;10236006;28;20051;-62
2023/12/13 02:44:59;;;;;;;13.15;2.85;;;;;;;10.20;81.00;98705.16;10235369;28;20040;-62
2023/12/13 02:50:01;;;;;;;10.15;2.92;;;;;;;10.07;81.40;98710.59;10236291;28;20058;-62
2023/12/13 02:55:03;;;;;;;13.98;3.50;;;;;;;9.95;81.40;98690.84;10234292;28;20490;-62
2023/12/13 03:00:06;;;;;;;11.57;3.63;;;;;;;9.91;80.95;98685.06;10235828;28;20054;-62
2023/12/13 03:05:08;;;;;;;15.10;3.63;;;;;;;9.81;81.28;98676.66;10233733;28;20066;-61
2023/12/13 03:10:09;;;;;;;11.57;3.05;;;;;;;9.72;81.12;98682.25;10234956;28;20047;-61
2023/12/13 03:15:11;;;;;;;14.05;3.65;;;;;;;9.68;81.23;98675.66;10237768;28;20557;-63
2023/12/13 03:20:13;;;;;;;11.02;3.83;;;;;;;9.64;81.05;98674.44;10233660;28;20652;-62
2023/12/13 03:25:14;;;;;;;18.98;4.68;;;;;;;9.58;81.08;98677.13;10232572;28;20456;-63
2023/12/13 03:30:16;;;;;;;15.45;4.57;;;;;;;9.54;81.32;98668.69;10236635;28;20144;-62
2023/12/13 03:35:17;;;;;;;12.80;4.07;;;;;;;9.58;80.93;98659.19;10234521;28;20456;-63
2023/12/13 03:40:19;;;;;;;20.52;4.95;;;;;;;9.59;80.93;98663.50;10251237;28;20047;-61
2023/12/13 03:45:23;;;;;;;22.55;5.03;;;;;;;9.55;80.99;98664.16;10234134;28;20047;-63
2023/12/13 03:50:24;;;;;;;16.95;3.45;;;;;;;9.50;80.87;98672.84;10235392;28;20047;-63
2023/12/13 03:55:26;;;;;;;20.65;3.88;;;;;;;9.58;80.68;98671.75;10238844;28;20085;-61
2023/12/13 04:00:27;;;;;;;23.25;4.45;;;;;;;9.66;80.30;98674.25;10236059;28;20062;-62
2023/12/13 04:05:29;;;;;;;21.73;5.43;;;;;;;9.74;80.41;98668.63;10233778;28;20043;-61
2023/12/13 04:10:30;;;;;;;17.58;5.68;;;;;;;9.80;80.08;98670.47;10241374;28;20495;-63
2023/12/13 04:15:31;;;;;;;23.40;6.13;;;;;;;9.64;80.35;98669.06;10241346;28;20043;-61
2023/12/13 04:20:33;;;;;;;21.25;6.10;;;;;;;9.55;80.42;98661.47;10242699;28;20598;-62
2023/12/13 04:25:34;;;;;;;14.43;4.65;;;;;;;9.51;80.28;98663.75;10241894;28;20047;-62
2023/12/13 04:30:36;;;;;;;13.13;3.58;;;;;;;9.53;80.22;98661.69;10240954;28;20100;-61
2023/12/13 04:35:38;;;;;;;12.02;3.05;;;;;;;9.57;80.16;98662.09;10241505;28;20455;-61
2023/12/13 04:40:40;;;;;;;12.80;4.13;;;;;;;9.61;79.83;98661.44;10241471;28;20491;-62
2023/12/13 04:45:41;;;;;;;21.55;7.93;;;;;;;9.62;80.04;98662.28;10239375;28;20043;-61
2023/12/13 04:50:43;;;;;;;12.38;4.40;;;;;;;9.65;80.19;98656.47;10241524;28;20051;-61
2023/12/13 04:55:44;;;;;;;20.10;4.07;;;;;;;9.72;80.03;98655.41;10239667;28;20066;-63
2023/12/13 05:00:47;;;;;;;12.70;2.53;;;;;;;9.70;80.43;98654.81;10239857;28;20051;-63
2023/12/13 05:05:49;;;;;;;12.02;2.22;;;;;;;9.73;80.40;98650.88;10237431;28;20111;-63
2023/12/13 05:10:50;;;;;;;14.95;3.42;;;;;;;9.76;80.75;98645.09;10238967;28;20391;-63
2023/12/13 05:15:52;;;;;;;10.88;2.72;;;;;;;9.79;80.43;98646.50;10240557;28;20126;-63
2023/12/13 05:20:54;;;;;;;12.23;2.03;;;;;;;9.82;80.47;98646.09;10237428;28;20043;-63
2023/12/13 05:25:55;;;;;;;14.20;3.00;;;;;;;9.86;80.81;98636.59;10239397;28;20066;-63
2023/12/13 05:30:57;;;;;;;12.07;3.67;;;;;;;9.82;80.63;98633.50;10237313;28;20082;-63
2023/12/13 05:35:58;;;;;;;10.88;2.35;;;;;;;9.80;80.50;98634.75;10238746;28;20046;-63
2023/12/13 05:40:59;;;;;;;11.45;1.98;;;;;;;9.77;80.21;98630.63;10237984;28;20050;-63
2023/12/13 05:46:05;;;;;;;8.80;1.98;;;;;;;9.72;80.40;98633.97;10236893;28;20043;-63
2023/12/13 05:51:07;;;;;;;7.50;2.03;;;;;;;9.68;80.39;98632.72;10236814;28;20047;-63
2023/12/13 05:56:10;;;;;;;7.65;2.13;;;;;;;9.67;80.48;98633.75;10237546;28;20051;-63
2023/12/13 06:01:11;;;;;;;10.18;2.28;;;;;;;9.76;80.34;98638.91;10234725;28;20046;-63
2023/12/13 06:06:13;;;;;;;10.10;2.72;;;;;;;9.90;80.08;98640.50;10234210;28;20043;-63
2023/12/13 06:11:14;;;;;;;10.95;1.92;;;;;;;9.84;80.42;98630.59;10238735;28;20145;-62
2023/12/13 06:16:16;;;;;;;10.13;2.75;;;;;;;9.85;80.44;98618.81;10234425;28;20051;-62
2023/12/13 06:21:17;;;;;;;10.05;2.88;;;;;;;9.74;80.71;98628.38;10236714;28;20094;-63
2023/12/13 06:26:19;;;;;;;11.07;2.28;;;;;;;9.67;80.44;98627.56;10237187;28;20063;-62
2023/12/13 06:31:20;;;;;;;13.55;2.55;;;;;;;9.64;80.14;98620.78;10233852;28;20054;-63
2023/12/13 06:36:22;;;;;;;11.93;4.45;;;;;;;9.62;79.79;98627.41;10232568;28;20138;-62
2023/12/13 06:41:23;;;;;;;14.15;3.28;;;;;;;9.64;79.88;98633.38;10233396;28;20098;-62
2023/12/13 06:46:25;;;;;;;11.02;3.88;;;;;;;9.59;79.94;98634.00;10231233;28;20061;-63
2023/12/13 06:51:26;;;;;;;17.27;4.38;;;;;;;9.49;80.17;98626.41;10234243;28;20055;-62
2023/12/13 06:56:28;;;;;;;18.05;3.90;;;;;;;9.50;80.20;98614.66;10233467;28;20043;-63
2023/12/13 07:01:29;;;;;;;11.13;3.40;;;;;;;9.60;79.98;98614.19;10247779;28;20039;-62
2023/12/13 07:06:31;;;;;;;14.27;4.22;;;;;;;9.70;79.40;98613.75;10232566;28;20039;-63
2023/12/13 07:11:33;;;;;;;11.07;3.70;;;;;;;9.73;79.54;98613.31;10238306;28;20047;-63
2023/12/13 07:16:35;;;;;;;14.43;4.43;;;;;;;9.71;79.52;98600.09;10270175;23;21895;-86
2023/12/13 07:21:37;;;;;;;14.90;5.10;;;;;;;9.77;79.12;98602.97;10267684;28;20057;-85
2023/12/13 07:26:39;;;;;;;18.77;5.60;;;;;;;9.83;78.66;98596.75;10284348;28;20817;-86
2023/12/13 07:31:41;;;;;;;12.20;4.18;;;;;;;9.88;79.09;98602.31;10276308;28;20130;-86
2023/12/13 07:36:48;;;;;;;17.77;4.70;;;;;;;9.85;79.14;98600.88;10281226;28;20051;-86
2023/12/13 07:41:49;;;;;;;21.08;6.55;;;;;;;9.88;79.56;98610.34;10290437;28;20039;-87
2023/12/13 07:46:52;;;;;;;20.65;5.45;;;;;;;9.98;79.99;98601.84;10320061;28;20050;-86
2023/12/13 07:51:55;;;;;;;22.48;5.38;;;;;;;10.06;79.57;98601.59;10309259;28;20050;-86
2023/12/13 07:56:57;;;;;;;26.13;5.60;;;;;;;10.16;79.72;98596.56;10334891;28;20045;-86
2023/12/13 08:01:59;;;;;;;26.27;7.32;;;;;;;10.22;79.89;98602.94;10303899;28;20043;-86
2023/12/13 08:07:02;;;;;;;26.85;6.40;;;;;;;10.29;79.95;98607.22;10333147;28;20035;-83
2023/12/13 08:12:04;;;;;;;22.25;6.95;;;;;;;10.34;79.77;98611.94;10288759;28;20121;-81
2023/12/13 08:17:08;;;;;;;20.02;6.75;;;;;;;10.37;79.96;98616.91;10309014;28;20051;-83
2023/12/13 08:22:10;;;;;;;18.40;7.00;;;;;;;10.27;80.26;98614.66;10328815;28;20034;-83
2023/12/13 08:27:12;;;;;;;25.20;6.75;;;;;;;10.22;80.90;98613.66;10342484;28;20031;-85
2023/12/13 08:32:15;;;;;;;16.45;5.75;;;;;;;10.31;80.88;98609.72;10323173;28;20038;-84
2023/12/13 08:37:17;;;;;;;17.15;6.10;;;;;;;10.37;80.52;98611.53;10342820;28;20062;-85
2023/12/13 08:42:19;;;;;;;16.20;5.47;;;;;;;10.48;80.33;98600.06;10340657;28;20042;-85
2023/12/13 08:47:22;;;;;;;15.65;5.82;;;;;;;10.57;80.10;98607.88;10321047;28;20110;-84
2023/12/13 08:52:24;;;;;;;25.02;8.77;;;;;;;10.48;80.38;98612.69;10323974;28;20027;-84
2023/12/13 08:57:26;;;;;;;24.70;8.60;;;;;;;10.49;80.54;98617.03;10314356;28;20064;-82
2023/12/13 09:02:27;;;;;;;22.67;8.65;;;;;;;10.48;80.88;98610.00;10331092;28;20034;-83
2023/12/13 09:07:29;;;;;;;23.75;8.63;;;;;;;10.43;80.74;98613.34;10311068;28;20054;-85
2023/12/13 09:12:31;;;;;;;20.90;8.07;;;;;;;10.36;80.99;98611.75;10330910;28;20056;-84
2023/12/13 09:17:34;;;;;;;25.63;8.57;;;;;;;10.35;81.05;98620.81;10297560;28;20051;-82
2023/12/13 09:22:36;;;;;;;22.42;8.25;;;;;;;10.30;81.16;98614.25;10288154;28;20043;-82
2023/12/13 09:27:38;;;;;;;22.48;7.90;;;;;;;10.26;81.32;98612.19;10297517;28;20049;-82
2023/12/13 09:32:40;;;;;;;21.08;7.53;;;;;;;10.24;81.42;98616.97;10287435;28;20165;-84
2023/12/13 09:37:43;;;;;;;17.77;7.20;;;;;;;10.29;81.91;98620.63;10289840;28;20054;-83
2023/12/13 09:42:46;;;;;;;19.35;7.20;;;;;;;10.36;81.73;98622.50;10292841;28;20378;-83
2023/12/13 09:47:51;;;;;;;11.93;6.63;;;;;;;10.58;81.77;98622.94;10289323;28;20058;-84
2023/12/13 09:52:54;;;;;;;19.15;7.28;;;;;;;10.68;81.33;98631.31;10301408;28;20142;-83
2023/12/13 09:57:56;;;;;;;19.58;7.60;;;;;;;10.78;81.67;98620.94;10314643;28;20068;-83
2023/12/13 10:02:59;;;;;;;14.50;8.05;;;;;;;10.91;81.71;98622.66;10318142;28;20121;-82
2023/12/13 10:08:02;;;;;;;21.55;9.48;;;;;;;10.99;81.27;98613.50;10299427;28;20053;-81
2023/12/13 10:13:06;;;;;;;15.80;8.32;;;;;;;10.99;81.38;98621.56;10300903;28;20081;-82
2023/12/13 10:18:08;;;;;;;15.20;7.95;;;;;;;11.14;81.26;98610.44;10304356;28;20061;-82
2023/12/13 10:23:09;;;;;;;18.77;8.55;;;;;;;11.38;80.81;98616.81;10317244;28;20074;-81
2023/12/13 10:28:11;;;;;;;16.40;7.32;;;;;;;11.46;81.15;98616.53;10277293;28;20138;-82
2023/12/13 10:33:13;;;;;;;14.45;6.90;;;;;;;11.55;80.80;98607.06;10284091;28;20082;-82
2023/12/13 10:38:16;;;;;;;11.70;5.50;;;;;;;11.57;80.89;98612.25;10286334;28;20050;-82
2023/12/13 10:43:18;;;;;;;14.13;5.95;;;;;;;11.54;80.52;98628.84;10282251;28;20510;-82
2023/12/13 10:48:23;;;;;;;10.90;5.60;;;;;;;11.62;80.92;98618.59;10290865;28;20049;-82
2023/12/13 10:53:26;;;;;;;8.95;5.45;;;;;;;11.82;80.57;98612.13;10290494;28;20065;-83
2023/12/13 10:58:28;;;;;;;8.77;3.28;;;;;;;11.70;80.80;98610.22;10285247;28;20074;-83
2023/12/13 11:04:08;;;;;;;8.32;3.60;;;;;;;11.78;80.43;98603.69;10285136;28;20051;-83
2023/12/13 11:09:21;;;;;;;3.65;1.20;;;;;;;11.59;80.60;98600.22;10284843;28;20129;-82
2023/12/13 11:14:26;;;;;;;5.18;1.00;;;;;;;11.47;80.58;98600.16;10280346;28;20047;-84
2023/12/13 11:19:29;;;;;;;5.82;1.30;;;;;;;11.38;80.43;98598.81;10290625;28;20059;-83
2023/12/13 11:24:36;;;;;;;5.40;1.02;;;;;;;11.29;80.28;98611.75;10296563;28;20054;-83
2023/12/13 11:29:42;;;;;;;4.53;1.20;;;;;;;11.20;80.79;98606.88;10294355;28;20046;-84
2023/12/13 11:34:48;;;;;;;3.83;0.90;;;;;;;11.16;81.31;98601.13;10293157;28;20042;-84
2023/12/13 11:39:50;;;;;;;1.52;0.90;;;;;;;11.21;81.18;98620.09;10289739;28;20899;-84
2023/12/13 11:44:52;;;;;;;3.25;0.82;;;;;;;11.15;80.72;98620.16;10292346;28;20497;-83
2023/12/13 11:49:54;;;;;;;2.17;0.70;;;;;;;11.07;80.92;98619.41;10292419;28;20039;-83
2023/12/13 11:54:57;;;;;;;2.25;1.00;;;;;;;11.20;80.61;98614.94;10273509;28;20762;-83
2023/12/13 11:59:59;;;;;;;4.25;0.75;;;;;;;11.56;80.00;98616.00;10290246;28;20047;-83
2023/12/13 12:05:01;;;;;;;2.38;0.70;;;;;;;11.63;80.00;98612.19;10292101;28;20065;-83
2023/12/13 12:10:04;;;;;;;2.15;1.00;;;;;;;11.73;79.95;98602.72;10288459;28;20035;-83
2023/12/13 12:15:07;;;;;;;4.72;0.60;;;;;;;11.86;79.58;98600.69;10287500;28;20070;-84
2023/12/13 12:20:09;;;;;;;6.13;1.00;;;;;;;11.68;79.72;98598.84;10290400;28;20081;-83
2023/12/13 12:25:11;;;;;;;4.35;0.65;;;;;;;11.56;79.83;98599.84;10287989;28;20046;-84
2023/12/13 12:30:13;;;;;;;3.42;0.60;;;;;;;11.47;79.66;98597.47;10288853;28;20097;-83
2023/12/13 12:35:15;;;;;;;4.03;0.65;;;;;;;11.53;79.58;98601.09;10276833;28;20042;-85
2023/12/13 12:40:17;;;;;;;4.65;0.55;;;;;;;11.59;79.21;98599.38;10285606;28;20574;-84
2023/12/13 12:45:19;;;;;;;2.55;0.50;;;;;;;11.58;79.99;98603.94;10271495;28;20051;-82
2023/12/13 12:50:21;;;;;;;1.73;0.40;;;;;;;11.75;79.71;98604.16;10297806;28;20054;-82
2023/12/13 12:55:23;;;;;;;2.28;0.60;;;;;;;11.81;79.17;98597.88;10307313;28;20046;-82
2023/12/13 13:00:25;;;;;;;2.75;0.50;;;;;;;12.02;78.76;98601.13;10281467;28;20050;-82
2023/12/13 13:05:26;;;;;;;0.95;0.38;;;;;;;12.12;78.04;98595.19;10288084;28;20043;-83
2023/12/13 13:10:28;;;;;;;0.90;0.40;;;;;;;12.36;77.58;98598.78;10299396;28;20043;-83
2023/12/13 13:15:30;;;;;;;1.45;0.45;;;;;;;12.36;77.42;98599.63;10290701;28;20063;-82
2023/12/13 13:20:32;;;;;;;3.38;0.57;;;;;;;12.36;77.88;98607.69;10282320;28;20461;-82
2023/12/13 13:25:34;;;;;;;2.35;0.80;;;;;;;12.55;77.24;98603.03;10295654;28;20520;-81
2023/12/13 13:30:35;;;;;;;1.63;0.60;;;;;;;12.28;77.50;98603.47;10295748;28;20407;-82
2023/12/13 13:35:37;;;;;;;3.72;0.57;;;;;;;12.20;77.36;98611.03;10287679;28;20043;-82
2023/12/13 13:40:39;;;;;;;4.78;1.17;;;;;;;12.16;77.03;98599.88;10301121;28;20046;-83
2023/12/13 13:45:40;;;;;;;2.45;0.82;;;;;;;12.23;76.73;98607.88;10299813;28;20055;-82
2023/12/13 13:50:42;;;;;;;2.00;0.80;;;;;;;12.16;76.68;98602.56;10300284;28;20446;-82
2023/12/13 13:55:45;;;;;;;4.43;1.63;;;;;;;12.15;77.29;98598.25;10300132;28;20038;-86
2023/12/13 14:00:47;;;;;;;7.72;1.67;;;;;;;12.19;76.55;98593.25;10272934;28;20102;-86
2023/12/13 14:05:49;;;;;;;4.15;1.20;;;;;;;12.14;76.64;98604.69;10268791;28;20379;-86
2023/12/13 14:10:51;;;;;;;4.78;1.20;;;;;;;12.13;76.17;98610.31;10288962;28;20046;-86
2023/12/13 14:15:54;;;;;;;5.20;1.15;;;;;;;12.25;76.14;98619.25;10272397;28;20058;-86
2023/12/13 14:20:56;;;;;;;5.40;0.82;;;;;;;12.33;75.60;98615.41;10284489;28;20046;-86
2023/12/13 14:25:58;;;;;;;6.15;0.65;;;;;;;12.22;75.66;98611.63;10270831;28;20240;-86
2023/12/13 14:31:00;;;;;;;2.50;0.70;;;;;;;12.02;75.91;98615.41;10284795;28;20145;-87
2023/12/13 14:36:02;;;;;;;6.82;1.40;;;;;;;11.90;75.96;98617.25;10283104;28;20624;-86
2023/12/13 14:41:03;;;;;;;5.57;1.50;;;;;;;11.76;75.96;98615.75;10284704;28;20058;-85
2023/12/13 14:46:05;;;;;;;4.63;1.23;;;;;;;11.67;76.08;98626.81;10293990;28;20049;-84
2023/12/13 14:51:07;;;;;;;4.20;1.10;;;;;;;11.50;76.07;98623.09;10272734;28;20109;-85
2023/12/13 14:56:09;;;;;;;6.35;1.95;;;;;;;11.42;76.41;98624.22;10283868;28;20031;-85
2023/12/13 15:01:11;;;;;;;3.78;1.48;;;;;;;11.39;76.27;98635.41;10283526;28;20042;-85
2023/12/13 15:06:14;;;;;;;2.40;0.80;;;;;;;11.36;76.22;98640.44;10287928;28;20054;-82
2023/12/13 15:11:16;;;;;;;6.10;1.83;;;;;;;11.26;76.17;98644.47;10297263;28;20042;-83
2023/12/13 15:16:18;;;;;;;5.28;2.33;;;;;;;11.16;75.98;98654.06;10284144;28;20057;-80
2023/12/13 15:21:20;;;;;;;6.97;2.00;;;;;;;11.04;75.83;98654.81;10292081;28;20421;-81
2023/12/13 15:26:21;;;;;;;5.32;2.40;;;;;;;10.93;76.17;98666.28;10290298;28;20670;-81
2023/12/13 15:31:23;;;;;;;6.53;2.63;;;;;;;10.83;75.87;98672.16;10289691;28;20050;-81
2023/12/13 15:36:25;;;;;;;9.15;2.75;;;;;;;10.78;76.25;98674.69;10288847;28;20046;-82
2023/12/13 15:41:27;;;;;;;5.93;2.75;;;;;;;10.69;76.12;98679.47;10286603;28;20053;-81
2023/12/13 15:46:28;;;;;;;7.97;3.05;;;;;;;10.62;76.14;98683.25;10289078;28;20043;-82
2023/12/13 15:51:31;;;;;;;8.88;2.85;;;;;;;10.48;76.90;98696.78;10290780;28;20058;-82
2023/12/13 15:56:32;;;;;;;5.70;2.60;;;;;;;10.51;76.47;98698.22;10297027;28;20113;-81
2023/12/13 16:01:34;;;;;;;7.15;2.80;;;;;;;10.53;76.43;98704.19;10298549;28;20517;-81
2023/12/13 16:06:37;;;;;;;5.95;4.20;;;;;;;10.52;76.25;98705.22;10300532;28;20046;-80
2023/12/13 16:11:38;;;;;;;8.43;3.97;;;;;;;10.49;76.45;98716.41;10302270;28;20103;-81
2023/12/13 16:16:40;;;;;;;6.90;3.40;;;;;;;10.27;77.09;98719.41;10294831;28;20114;-86
2023/12/13 16:21:42;;;;;;;7.05;4.20;;;;;;;10.25;77.24;98723.34;10288698;28;20051;-85
2023/12/13 16:26:44;;;;;;;7.40;5.05;;;;;;;10.13;76.79;98726.69;10287877;28;20070;-85
2023/12/13 16:31:47;;;;;;;11.50;3.38;;;;;;;10.12;76.92;98726.91;10287368;28;20075;-86
2023/12/13 16:36:48;;;;;;;9.93;3.92;;;;;;;10.11;76.67;98739.50;10285587;28;20054;-85
2023/12/13 16:41:56;;;;;;;7.85;5.05;;;;;;;10.05;76.99;98742.19;10291063;28;20090;-84
2023/12/13 16:46:57;;;;;;;7.50;4.53;;;;;;;9.98;76.81;98750.28;10285830;28;20063;-84
2023/12/13 16:52:00;;;;;;;7.93;4.43;;;;;;;9.92;76.57;98757.31;10265972;28;20042;-85
2023/12/13 16:57:02;;;;;;;10.13;5.55;;;;;;;9.82;77.05;98762.31;10267465;28;20038;-85
2023/12/13 17:02:06;;;;;;;12.25;5.53;;;;;;;9.84;76.95;98760.25;10283287;28;20478;-85
2023/12/13 17:07:08;;;;;;;11.85;6.00;;;;;;;9.85;77.05;98769.09;10286145;28;20047;-85
2023/12/13 17:12:09;;;;;;;13.18;5.63;;;;;;;9.87;76.96;98775.09;10284048;28;20061;-85
2023/12/13 17:17:11;;;;;;;8.63;4.43;;;;;;;9.84;76.73;98783.56;10287546;28;20150;-83
2023/12/13 17:22:17;;;;;;;8.85;5.68;;;;;;;9.76;76.98;98795.34;10262932;28;20046;-85
2023/12/13 17:27:19;;;;;;;10.68;5.07;;;;;;;9.76;76.88;98807.97;10286405;28;20126;-84
2023/12/13 17:32:20;;;;;;;11.07;4.43;;;;;;;9.81;76.68;98805.44;10269882;28;20046;-83
2023/12/13 17:37:22;;;;;;;14.02;7.25;;;;;;;9.85;76.77;98809.38;10292383;28;20054;-85
2023/12/13 17:42:27;;;;;;;15.05;6.90;;;;;;;9.86;76.94;98813.72;10291895;28;20055;-84
2023/12/13 17:47:29;;;;;;;15.93;7.38;;;;;;;9.82;77.39;98829.41;10285197;28;20150;-85
2023/12/13 17:52:31;;;;;;;15.02;6.10;;;;;;;9.88;77.10;98838.47;10265116;28;20461;-85
2023/12/13 17:57:33;;;;;;;12.95;6.38;;;;;;;9.91;77.25;98840.72;10302774;28;20039;-84
2023/12/13 18:02:34;;;;;;;12.73;5.15;;;;;;;9.91;76.52;98848.78;10304149;28;20050;-86
2023/12/13 18:07:39;;;;;;;7.97;4.15;;;;;;;9.87;76.93;98845.72;10297304;28;20050;-86
2023/12/13 18:12:40;;;;;;;14.85;5.90;;;;;;;9.87;76.79;98867.19;10270657;28;20519;-88
2023/12/13 18:17:42;;;;;;;21.52;10.45;;;;;;;9.79;76.88;98874.59;10288463;28;20526;-87
2023/12/13 18:22:44;;;;;;;15.27;7.25;;;;;;;9.78;77.12;98872.97;10270959;28;20113;-88
2023/12/13 18:27:45;;;;;;;14.77;7.93;;;;;;;9.82;76.75;98879.56;10291146;28;20055;-86
2023/12/13 18:32:47;;;;;;;10.35;6.85;;;;;;;9.83;76.69;98876.66;10287836;28;20055;-84
2023/12/13 18:37:49;;;;;;;14.35;7.03;;;;;;;9.60;77.21;98884.34;10270969;28;20494;-84
2023/12/13 18:42:51;;;;;;;11.15;5.90;;;;;;;9.56;77.76;98888.44;10286436;28;20125;-85
2023/12/13 18:47:52;;;;;;;9.85;5.55;;;;;;;9.59;77.49;98891.53;10281035;28;20051;-84
2023/12/13 18:52:54;;;;;;;14.77;6.80;;;;;;;9.40;78.07;98903.06;10289780;28;20046;-84
2023/12/13 18:57:55;;;;;;;11.55;4.57;;;;;;;9.24;77.73;98912.31;10297488;28;20102;-83
2023/12/13 19:02:57;;;;;;;8.80;4.38;;;;;;;9.23;78.18;98916.03;10280722;28;20035;-84
2023/12/13 19:08:02;;;;;;;9.07;3.70;;;;;;;9.28;77.53;98922.44;10263508;28;20378;-84
2023/12/13 19:13:04;;;;;;;8.40;4.63;;;;;;;9.31;77.50;98932.75;10259482;28;20039;-84
2023/12/13 19:18:05;;;;;;;10.88;4.72;;;;;;;9.19;77.01;98929.03;10297211;28;20061;-84
2023/12/13 19:23:07;;;;;;;10.82;5.18;;;;;;;9.06;77.56;98939.69;10283998;28;20102;-84
2023/12/13 19:28:08;;;;;;;9.50;4.82;;;;;;;8.92;77.62;98950.34;10287001;28;20077;-84
2023/12/13 19:33:10;;;;;;;12.27;6.47;;;;;;;9.00;77.11;98954.72;10280778;28;20406;-83
2023/12/13 19:38:12;;;;;;;13.00;7.55;;;;;;;8.95;76.98;98964.41;10280300;28;20463;-82
2023/12/13 19:43:13;;;;;;;8.82;4.45;;;;;;;8.71;77.49;98974.59;10287483;28;20039;-83
2023/12/13 19:48:15;;;;;;;10.60;4.90;;;;;;;8.66;77.61;98982.41;10287416;28;20086;-83
2023/12/13 19:53:16;;;;;;;12.40;5.50;;;;;;;8.66;77.57;98993.94;10285455;28;20039;-83
2023/12/13 19:58:20;;;;;;;10.70;4.28;;;;;;;8.62;77.61;99005.25;10285596;28;20047;-83
2023/12/13 20:03:21;;;;;;;15.38;5.35;;;;;;;8.60;77.49;99009.97;10283366;28;20051;-83
2023/12/13 20:08:23;;;;;;;13.48;6.25;;;;;;;8.60;77.50;99013.47;10286616;28;20051;-83
2023/12/13 20:13:24;;;;;;;14.77;6.22;;;;;;;8.57;77.14;99013.88;10260929;28;20070;-83
2023/12/13 20:18:26;;;;;;;11.65;5.60;;;;;;;8.56;77.32;99019.44;10281239;28;20402;-83
2023/12/13 20:23:28;;;;;;;12.70;6.15;;;;;;;8.50;77.49;99023.72;10280306;28;20141;-83
2023/12/13 20:28:31;;;;;;;11.05;5.28;;;;;;;8.54;77.32;99022.28;10288476;28;20145;-83
2023/12/13 20:33:32;;;;;;;20.30;8.00;;;;;;;8.58;77.29;99033.44;10289266;28;20142;-85
2023/12/13 20:38:34;;;;;;;19.30;7.43;;;;;;;8.61;76.79;99049.97;10273975;28;20047;-84
2023/12/13 20:43:36;;;;;;;18.25;8.75;;;;;;;8.43;77.64;99052.28;10285639;28;20579;-85
2023/12/13 20:48:38;;;;;;;19.10;8.80;;;;;;;8.53;77.42;99058.97;10287414;28;20043;-85
2023/12/13 20:53:41;;;;;;;15.07;7.22;;;;;;;8.48;77.45;99061.38;10287614;28;20054;-85
2023/12/13 20:58:44;;;;;;;18.27;8.65;;;;;;;8.58;76.92;99074.44;10286872;28;20716;-82
2023/12/13 21:03:45;;;;;;;12.15;6.00;;;;;;;8.61;76.87;99078.56;10301881;28;20062;-85
2023/12/13 21:08:47;;;;;;;17.23;6.18;;;;;;;8.61;76.95;99089.28;10271288;28;20115;-86
2023/12/13 21:13:50;;;;;;;12.65;5.95;;;;;;;8.58;76.90;99089.69;10289538;28;20043;-86
2023/12/13 21:18:53;;;;;;;14.13;5.80;;;;;;;8.60;77.04;99101.03;10289626;28;20461;-86
2023/12/13 21:23:55;;;;;;;16.95;7.38;;;;;;;8.59;76.71;99102.91;10267295;28;20371;-85
2023/12/13 21:29:17;;;;;;;13.32;6.22;;;;;;;8.60;77.07;99117.94;10289911;28;20050;-85
2023/12/13 21:34:19;;;;;;;16.08;6.40;;;;;;;8.54;77.03;99114.19;10282851;28;20418;-85
2023/12/13 21:39:22;;;;;;;16.60;7.97;;;;;;;8.57;76.99;99122.84;10275369;28;20101;-83
2023/12/13 21:44:25;;;;;;;15.20;7.97;;;;;;;8.56;77.00;99142.63;10286919;28;20066;-85
2023/12/13 21:49:26;;;;;;;14.00;6.78;;;;;;;8.60;76.46;99142.03;10271201;28;20050;-86
2023/12/13 21:54:28;;;;;;;12.05;7.00;;;;;;;8.62;76.90;99152.56;10286720;28;20454;-84
2023/12/13 21:59:29;;;;;;;13.52;6.40;;;;;;;8.60;76.79;99159.97;10286217;28;20051;-86
2023/12/13 22:04:31;;;;;;;13.00;6.38;;;;;;;8.55;76.66;99157.88;10282158;28;20049;-85
2023/12/13 22:09:33;;;;;;;14.70;6.00;;;;;;;8.48;76.74;99170.38;10284415;28;20102;-85
2023/12/13 22:14:34;;;;;;;20.42;10.30;;;;;;;8.45;77.12;99176.09;10286675;28;20074;-86
2023/12/13 22:19:47;;;;;;;13.77;6.85;;;;;;;8.41;76.75;99182.81;10289214;28;20066;-87
2023/12/13 22:24:49;;;;;;;15.77;6.72;;;;;;;8.39;76.78;99188.34;10290857;28;20108;-87
2023/12/13 22:29:51;;;;;;;11.90;6.65;;;;;;;8.44;77.19;99195.88;10273093;28;20107;-87
2023/12/13 22:34:52;;;;;;;10.52;5.50;;;;;;;8.51;76.86;99202.09;10288340;28;20155;-87
2023/12/13 22:39:54;;;;;;;29.67;8.55;;;;;;;8.53;77.13;99208.09;10298280;28;20061;-86
2023/12/13 22:44:55;;;;;;;26.90;9.00;;;;;;;8.53;76.90;99211.63;10294235;28;20130;-87
2023/12/13 22:49:57;;;;;;;17.08;7.88;;;;;;;8.62;76.79;99217.69;10272560;28;20154;-86
2023/12/13 22:54:59;;;;;;;21.30;8.65;;;;;;;8.63;76.93;99223.84;10286423;28;20043;-86
2023/12/13 23:00:00;;;;;;;21.67;7.90;;;;;;;8.68;76.84;99230.31;10295172;28;20047;-86
2023/12/13 23:05:02;;;;;;;40.45;9.70;;;;;;;8.69;76.98;99236.50;10283708;28;20413;-86
2023/12/13 23:10:04;;;;;;;27.00;10.07;;;;;;;8.70;76.86;99251.56;10289125;28;20085;-84
2023/12/13 23:15:06;;;;;;;23.88;8.40;;;;;;;8.70;76.98;99262.25;10288113;28;20101;-84
2023/12/13 23:20:09;;;;;;;31.70;9.27;;;;;;;8.72;76.87;99263.72;10292174;28;20138;-84
2023/12/13 23:25:11;;;;;;;21.48;7.63;;;;;;;8.64;77.38;99263.03;10280713;28;20078;-84